Time;durP1;ratioP1;P1;durP2;ratioP2;P2;SDS_P1;SDS_P2;PMS_P1;PMS_P2;Temp;Humidity;BMP_temperature;BMP_pressure;BME280_temperature;BME280_humidity;BME280_pressure;Samples;Min_cycle;Max_cycle;Signal;HPM_P1;HPM_P2
2023/05/06 00:01:36;;;;;;;4.87;3.73;;;;;;;;;;5042687;28;20215;-75
2023/05/06 00:04:02;;;;;;;4.00;3.60;;;;;;;;;;5035258;28;20196;-76
2023/05/06 00:06:27;;;;;;;4.20;3.90;;;;;;;;;;5049933;28;20209;-76
2023/05/06 00:08:53;;;;;;;5.40;4.07;;;;;;;;;;5045421;28;20186;-76
2023/05/06 00:11:18;;;;;;;4.53;3.70;;;;;;;;;;5047185;28;20188;-76
2023/05/06 00:13:43;;;;;;;5.17;4.03;;;;;;;;;;5049612;28;20183;-76
2023/05/06 00:16:08;;;;;;;6.23;4.53;;;;;;;;;;5046210;28;20264;-75
2023/05/06 00:18:34;;;;;;;4.90;4.40;;;;;;;;;;5045748;28;20176;-76
2023/05/06 00:20:59;;;;;;;4.90;4.43;;;;;;;;;;5048933;28;20171;-76
2023/05/06 00:23:24;;;;;;;5.77;4.90;;;;;;;;;;5044417;28;20267;-76
2023/05/06 00:25:49;;;;;;;4.77;4.37;;;;;;;;;;5050188;28;20175;-76
2023/05/06 00:28:15;;;;;;;7.17;5.30;;;;;;;;;;5042390;28;20332;-76
2023/05/06 00:30:40;;;;;;;5.37;4.40;;;;;;;;;;5046239;28;20310;-76
2023/05/06 00:33:05;;;;;;;6.27;5.67;;;;;;;;;;5042673;28;20181;-76
2023/05/06 00:35:30;;;;;;;7.07;5.63;;;;;;;;;;5044378;28;20270;-76
2023/05/06 00:38:10;;;;;;;8.47;6.63;;;;;;;;;;5047014;28;20199;-75
2023/05/06 00:40:36;;;;;;;7.37;6.63;;;;;;;;;;5048093;28;20175;-76
2023/05/06 00:43:01;;;;;;;7.70;6.90;;;;;;;;;;5047608;28;20191;-76
2023/05/06 00:45:27;;;;;;;7.30;6.57;;;;;;;;;;5045334;28;20189;-76
2023/05/06 00:47:52;;;;;;;8.90;6.93;;;;;;;;;;5045172;28;20187;-76
2023/05/06 00:50:18;;;;;;;7.20;6.47;;;;;;;;;;5046533;28;20185;-76
2023/05/06 00:52:43;;;;;;;7.63;6.93;;;;;;;;;;5043870;28;20197;-76
2023/05/06 00:55:08;;;;;;;7.27;6.67;;;;;;;;;;5044578;28;20184;-76
2023/05/06 00:57:33;;;;;;;8.90;8.10;;;;;;;;;;5047001;28;20254;-76
2023/05/06 00:59:59;;;;;;;8.20;7.33;;;;;;;;;;5049352;28;20165;-76
2023/05/06 01:02:24;;;;;;;8.17;7.43;;;;;;;;;;5046333;28;20207;-76
2023/05/06 01:04:50;;;;;;;8.73;7.90;;;;;;;;;;5045769;28;20184;-76
2023/05/06 01:07:34;;;;;;;8.70;7.80;;;;;;;;;;5044248;28;20186;-76
2023/05/06 01:10:03;;;;;;;8.07;7.27;;;;;;;;;;5048478;28;20186;-76
2023/05/06 01:12:31;;;;;;;8.53;6.60;;;;;;;;;;5045827;28;20183;-76
2023/05/06 01:14:59;;;;;;;7.20;6.60;;;;;;;;;;5049705;28;20289;-75
2023/05/06 01:17:26;;;;;;;8.30;7.60;;;;;;;;;;5060287;28;20241;-76
2023/05/06 01:19:54;;;;;;;8.00;7.23;;;;;;;;;;5044888;28;20182;-76
2023/05/06 01:22:19;;;;;;;9.80;8.37;;;;;;;;;;5044721;28;20183;-76
2023/05/06 01:24:45;;;;;;;8.63;7.80;;;;;;;;;;5039823;28;20233;-76
2023/05/06 01:27:11;;;;;;;10.50;8.17;;;;;;;;;;5047644;28;20244;-76
2023/05/06 01:29:38;;;;;;;9.50;8.20;;;;;;;;;;5046393;28;20232;-76
2023/05/06 01:32:24;;;;;;;8.93;8.20;;;;;;;;;;5059760;28;20187;-76
2023/05/06 01:35:10;;;;;;;9.50;8.60;;;;;;;;;;5061191;28;20209;-76
2023/05/06 01:37:56;;;;;;;10.17;9.13;;;;;;;;;;5044394;28;20235;-76
2023/05/06 01:40:23;;;;;;;14.60;10.50;;;;;;;;;;5047154;28;20178;-76
2023/05/06 01:42:49;;;;;;;13.20;10.53;;;;;;;;;;5059136;28;20183;-75
2023/05/06 01:45:16;;;;;;;10.30;9.23;;;;;;;;;;5042348;28;20199;-76
2023/05/06 01:47:43;;;;;;;10.37;9.37;;;;;;;;;;5046566;28;20202;-76
2023/05/06 01:50:08;;;;;;;8.70;7.57;;;;;;;;;;5044563;28;20292;-75
2023/05/06 01:52:33;;;;;;;9.73;8.73;;;;;;;;;;5043747;28;20199;-76
2023/05/06 01:54:59;;;;;;;12.07;10.43;;;;;;;;;;5045845;28;20198;-76
2023/05/06 01:57:24;;;;;;;10.40;9.27;;;;;;;;;;5039492;28;20292;-76
2023/05/06 01:59:49;;;;;;;12.53;9.47;;;;;;;;;;5046207;28;20225;-76
2023/05/06 02:02:14;;;;;;;10.30;9.40;;;;;;;;;;5045486;28;20207;-76
2023/05/06 02:04:40;;;;;;;10.67;9.07;;;;;;;;;;5048931;28;20179;-76
2023/05/06 02:07:05;;;;;;;12.40;9.70;;;;;;;;;;5047079;28;20253;-76
2023/05/06 02:09:30;;;;;;;10.80;9.70;;;;;;;;;;5047058;28;20187;-76
2023/05/06 02:11:55;;;;;;;10.13;9.23;;;;;;;;;;5042878;28;20191;-76
2023/05/06 02:14:20;;;;;;;9.80;8.80;;;;;;;;;;5046028;28;20188;-76
2023/05/06 02:16:46;;;;;;;10.53;9.43;;;;;;;;;;5041440;28;20234;-76
2023/05/06 02:19:11;;;;;;;9.30;8.40;;;;;;;;;;5046543;28;20260;-76
2023/05/06 02:21:36;;;;;;;10.80;9.70;;;;;;;;;;5051773;28;20168;-76
2023/05/06 02:24:01;;;;;;;8.17;7.37;;;;;;;;;;5042568;28;20365;-76
2023/05/06 02:26:27;;;;;;;9.50;7.90;;;;;;;;;;5043027;28;20187;-76
2023/05/06 02:28:52;;;;;;;8.13;7.37;;;;;;;;;;5042943;28;20174;-76
2023/05/06 02:31:17;;;;;;;7.80;7.10;;;;;;;;;;5044960;28;20253;-76
2023/05/06 02:33:43;;;;;;;7.70;7.00;;;;;;;;;;5045315;28;20274;-76
2023/05/06 02:36:09;;;;;;;8.27;7.47;;;;;;;;;;5056584;28;20196;-76
2023/05/06 02:38:34;;;;;;;9.63;8.70;;;;;;;;;;5046487;28;20228;-76
2023/05/06 02:40:59;;;;;;;10.43;8.53;;;;;;;;;;5048088;28;20175;-76
2023/05/06 02:43:24;;;;;;;7.97;7.17;;;;;;;;;;5040475;28;20207;-76
2023/05/06 02:45:49;;;;;;;8.87;8.07;;;;;;;;;;5039880;28;20266;-76
2023/05/06 02:48:15;;;;;;;11.90;10.77;;;;;;;;;;5039543;28;20183;-76
2023/05/06 02:50:40;;;;;;;10.20;8.63;;;;;;;;;;5046897;28;20175;-76
2023/05/06 02:53:07;;;;;;;10.27;8.23;;;;;;;;;;5038591;28;20182;-76
2023/05/06 02:55:33;;;;;;;11.93;8.57;;;;;;;;;;5044088;28;20179;-76
2023/05/06 02:57:58;;;;;;;9.90;8.90;;;;;;;;;;5042832;28;20186;-76
2023/05/06 03:00:23;;;;;;;9.63;8.20;;;;;;;;;;5043756;28;20281;-76
2023/05/06 03:02:48;;;;;;;12.50;8.10;;;;;;;;;;5041141;28;20196;-76
2023/05/06 03:05:13;;;;;;;9.07;8.13;;;;;;;;;;5043073;28;20176;-76
2023/05/06 03:07:39;;;;;;;9.07;7.63;;;;;;;;;;5044496;28;20228;-76
2023/05/06 03:10:04;;;;;;;9.50;7.80;;;;;;;;;;5043019;28;20176;-76
2023/05/06 03:12:29;;;;;;;7.77;6.97;;;;;;;;;;5039773;28;20174;-76
2023/05/06 03:14:55;;;;;;;7.60;6.90;;;;;;;;;;5044610;28;20174;-76
2023/05/06 03:17:20;;;;;;;7.87;7.17;;;;;;;;;;5036192;28;20275;-75
2023/05/06 03:19:45;;;;;;;6.17;5.63;;;;;;;;;;5045914;28;20197;-76
2023/05/06 03:22:10;;;;;;;8.07;6.23;;;;;;;;;;5044515;28;20218;-76
2023/05/06 03:24:35;;;;;;;6.17;5.53;;;;;;;;;;5046396;28;20173;-76
2023/05/06 03:27:01;;;;;;;5.73;5.23;;;;;;;;;;5045652;28;20231;-76
2023/05/06 03:29:26;;;;;;;5.47;4.97;;;;;;;;;;5046197;28;20233;-76
2023/05/06 03:31:54;;;;;;;6.13;5.23;;;;;;;;;;5070842;28;20190;-76
2023/05/06 03:34:19;;;;;;;6.17;5.50;;;;;;;;;;5043709;28;20269;-76
2023/05/06 03:36:45;;;;;;;6.37;5.57;;;;;;;;;;5046062;28;20286;-76
2023/05/06 03:39:10;;;;;;;5.70;5.13;;;;;;;;;;5037847;28;20179;-76
2023/05/06 03:41:35;;;;;;;5.80;4.87;;;;;;;;;;5044300;28;20195;-76
2023/05/06 03:44:00;;;;;;;5.80;5.13;;;;;;;;;;5042805;28;20185;-75
2023/05/06 03:46:25;;;;;;;6.07;5.47;;;;;;;;;;5049769;28;20188;-76
2023/05/06 03:48:51;;;;;;;6.57;5.87;;;;;;;;;;5044830;28;20264;-76
2023/05/06 03:51:16;;;;;;;9.97;7.33;;;;;;;;;;5045346;28;20186;-76
2023/05/06 03:53:41;;;;;;;6.60;6.00;;;;;;;;;;5046969;28;20180;-75
2023/05/06 03:56:06;;;;;;;6.10;5.50;;;;;;;;;;5047654;28;20178;-75
2023/05/06 03:58:31;;;;;;;7.10;6.17;;;;;;;;;;5044330;28;20179;-76
2023/05/06 04:00:59;;;;;;;7.40;6.27;;;;;;;;;;5046076;28;20183;-76
2023/05/06 04:03:24;;;;;;;6.30;5.70;;;;;;;;;;5050285;28;20230;-76
2023/05/06 04:05:50;;;;;;;6.00;5.50;;;;;;;;;;5055746;28;20181;-75
2023/05/06 04:08:16;;;;;;;5.93;5.43;;;;;;;;;;5041928;28;20187;-76
2023/05/06 04:10:41;;;;;;;5.90;5.30;;;;;;;;;;5043571;28;20251;-76
2023/05/06 04:13:06;;;;;;;8.60;5.63;;;;;;;;;;5049582;28;20284;-75
2023/05/06 04:15:33;;;;;;;5.90;5.30;;;;;;;;;;5047985;28;20183;-75
2023/05/06 04:17:58;;;;;;;6.93;6.23;;;;;;;;;;5046624;28;20293;-76
2023/05/06 04:20:24;;;;;;;7.80;5.90;;;;;;;;;;5049463;28;20269;-76
2023/05/06 04:22:49;;;;;;;6.70;5.27;;;;;;;;;;5046307;28;20195;-75
2023/05/06 04:25:15;;;;;;;6.03;5.40;;;;;;;;;;5047833;28;20184;-75
2023/05/06 04:27:40;;;;;;;7.13;5.70;;;;;;;;;;5045097;28;20204;-75
2023/05/06 04:30:05;;;;;;;6.27;5.63;;;;;;;;;;5041922;28;20237;-76
2023/05/06 04:32:31;;;;;;;6.40;5.80;;;;;;;;;;5045054;28;20205;-75
2023/05/06 04:34:56;;;;;;;9.57;6.57;;;;;;;;;;5045895;28;20178;-75
2023/05/06 04:37:21;;;;;;;6.90;6.07;;;;;;;;;;5053065;28;20205;-75
2023/05/06 04:39:47;;;;;;;7.70;6.13;;;;;;;;;;5051703;28;20179;-76
2023/05/06 04:42:13;;;;;;;7.37;6.53;;;;;;;;;;5048048;28;20216;-75
2023/05/06 04:44:38;;;;;;;7.73;6.13;;;;;;;;;;5047475;28;20224;-76
2023/05/06 04:47:03;;;;;;;7.10;6.40;;;;;;;;;;5046929;28;20250;-76
2023/05/06 04:49:29;;;;;;;6.10;5.00;;;;;;;;;;5042162;28;20182;-76
2023/05/06 04:51:54;;;;;;;7.93;5.40;;;;;;;;;;5048675;28;20187;-76
2023/05/06 04:54:19;;;;;;;6.07;5.47;;;;;;;;;;5042590;28;20179;-76
2023/05/06 04:56:44;;;;;;;7.03;5.47;;;;;;;;;;5039329;28;20217;-76
2023/05/06 04:59:09;;;;;;;6.60;5.70;;;;;;;;;;5046322;28;20184;-76
2023/05/06 05:01:35;;;;;;;7.27;6.23;;;;;;;;;;5041471;28;20285;-76
2023/05/06 05:04:00;;;;;;;6.60;5.90;;;;;;;;;;5042861;28;20207;-76
2023/05/06 05:06:25;;;;;;;6.77;6.03;;;;;;;;;;5041168;28;20239;-76
2023/05/06 05:08:50;;;;;;;6.67;5.90;;;;;;;;;;5036586;28;20182;-76
2023/05/06 05:11:16;;;;;;;8.47;6.27;;;;;;;;;;5044330;28;20177;-76
2023/05/06 05:13:41;;;;;;;6.93;6.20;;;;;;;;;;5045230;28;20186;-76
2023/05/06 05:16:06;;;;;;;10.37;6.37;;;;;;;;;;5043518;28;20248;-76
2023/05/06 05:18:31;;;;;;;6.93;6.23;;;;;;;;;;5043318;28;20177;-76
2023/05/06 05:20:56;;;;;;;6.53;5.83;;;;;;;;;;5046973;28;20241;-76
2023/05/06 05:23:22;;;;;;;7.97;6.23;;;;;;;;;;5039953;28;20178;-76
2023/05/06 05:25:47;;;;;;;9.50;6.50;;;;;;;;;;5049996;28;20180;-76
2023/05/06 05:28:12;;;;;;;6.53;5.90;;;;;;;;;;5048186;28;20178;-76
2023/05/06 05:30:37;;;;;;;6.53;5.93;;;;;;;;;;5049143;28;20229;-76
2023/05/06 05:33:02;;;;;;;7.37;6.30;;;;;;;;;;5043564;28;20209;-76
2023/05/06 05:35:28;;;;;;;5.60;5.10;;;;;;;;;;5046320;28;20210;-76
2023/05/06 05:37:53;;;;;;;7.13;5.20;;;;;;;;;;5045690;28;20237;-76
2023/05/06 05:40:19;;;;;;;7.70;5.50;;;;;;;;;;5040844;28;20170;-76
2023/05/06 05:42:44;;;;;;;6.57;5.33;;;;;;;;;;5041514;28;20286;-76
2023/05/06 05:45:09;;;;;;;5.60;4.93;;;;;;;;;;5045417;28;20174;-76
2023/05/06 05:47:34;;;;;;;6.53;5.33;;;;;;;;;;5044187;28;20187;-74
2023/05/06 05:50:00;;;;;;;5.97;4.53;;;;;;;;;;5047309;28;20183;-74
2023/05/06 05:52:25;;;;;;;4.77;4.20;;;;;;;;;;5048539;28;20274;-74
2023/05/06 05:54:50;;;;;;;4.00;3.70;;;;;;;;;;5042287;28;20210;-74
2023/05/06 05:57:15;;;;;;;4.03;3.63;;;;;;;;;;5044646;28;20300;-74
2023/05/06 05:59:41;;;;;;;6.00;4.73;;;;;;;;;;5037945;28;20170;-74
2023/05/06 06:02:06;;;;;;;4.10;3.50;;;;;;;;;;5044918;28;20206;-74
2023/05/06 06:04:31;;;;;;;4.00;3.27;;;;;;;;;;5037522;28;20192;-74
2023/05/06 06:06:56;;;;;;;3.53;3.17;;;;;;;;;;5039429;28;20178;-74
2023/05/06 06:09:22;;;;;;;2.83;2.63;;;;;;;;;;5052712;28;20196;-74
2023/05/06 06:11:47;;;;;;;2.67;2.37;;;;;;;;;;5047931;28;20195;-74
2023/05/06 06:14:13;;;;;;;3.37;2.47;;;;;;;;;;5048945;28;20236;-74
2023/05/06 06:16:38;;;;;;;3.50;2.40;;;;;;;;;;5044978;28;20300;-74
2023/05/06 06:19:03;;;;;;;3.40;2.03;;;;;;;;;;5045904;28;20174;-74
2023/05/06 06:21:28;;;;;;;4.57;2.70;;;;;;;;;;5036912;28;20216;-74
2023/05/06 06:23:54;;;;;;;3.37;2.37;;;;;;;;;;5048133;28;20236;-74
2023/05/06 06:26:20;;;;;;;2.83;2.50;;;;;;;;;;5044626;28;20174;-74
2023/05/06 06:28:45;;;;;;;3.63;2.67;;;;;;;;;;5044824;28;20178;-74
2023/05/06 06:31:10;;;;;;;3.93;3.53;;;;;;;;;;5043090;28;20239;-74
2023/05/06 06:33:35;;;;;;;4.83;3.87;;;;;;;;;;5043954;28;20206;-74
2023/05/06 06:36:01;;;;;;;4.40;4.00;;;;;;;;;;5050754;28;20172;-74
2023/05/06 06:38:26;;;;;;;6.73;3.67;;;;;;;;;;5041903;28;20273;-73
2023/05/06 06:40:51;;;;;;;2.97;2.63;;;;;;;;;;5048956;28;20210;-74
2023/05/06 06:43:18;;;;;;;3.23;2.97;;;;;;;;;;5042999;28;20266;-74
2023/05/06 06:45:46;;;;;;;4.30;3.90;;;;;;;;;;5043075;28;20202;-74
2023/05/06 06:48:11;;;;;;;4.67;3.87;;;;;;;;;;5048083;28;20269;-73
2023/05/06 06:50:36;;;;;;;2.80;2.60;;;;;;;;;;5043562;28;20271;-74
2023/05/06 06:53:01;;;;;;;6.50;4.90;;;;;;;;;;5049866;28;20206;-74
2023/05/06 06:55:27;;;;;;;3.97;2.70;;;;;;;;;;5041484;28;20175;-74
2023/05/06 06:57:52;;;;;;;2.70;2.30;;;;;;;;;;5043539;28;20195;-74
2023/05/06 07:00:17;;;;;;;2.53;2.33;;;;;;;;;;5046926;28;20183;-74
2023/05/06 07:02:42;;;;;;;3.03;2.00;;;;;;;;;;5048811;28;20210;-74
2023/05/06 07:05:07;;;;;;;3.33;2.30;;;;;;;;;;5041615;28;20192;-74
2023/05/06 07:07:33;;;;;;;3.17;2.30;;;;;;;;;;5045441;28;20174;-74
2023/05/06 07:09:58;;;;;;;2.37;2.10;;;;;;;;;;5048917;28;20263;-74
2023/05/06 07:12:25;;;;;;;2.43;2.17;;;;;;;;;;5045457;28;20302;-74
2023/05/06 07:14:50;;;;;;;10.53;3.87;;;;;;;;;;5043019;28;20177;-74
2023/05/06 07:17:15;;;;;;;2.27;2.07;;;;;;;;;;5040693;28;20210;-74
2023/05/06 07:19:41;;;;;;;2.10;1.80;;;;;;;;;;5039013;28;20190;-74
2023/05/06 07:22:06;;;;;;;2.13;1.93;;;;;;;;;;5049054;28;20170;-74
2023/05/06 07:24:31;;;;;;;2.10;1.90;;;;;;;;;;5037291;28;20181;-74
2023/05/06 07:26:57;;;;;;;2.70;2.10;;;;;;;;;;5046896;28;20180;-74
2023/05/06 07:29:22;;;;;;;2.50;2.00;;;;;;;;;;5052718;28;20181;-74
2023/05/06 07:31:47;;;;;;;4.67;2.67;;;;;;;;;;5050943;28;20231;-74
2023/05/06 07:34:13;;;;;;;2.43;2.23;;;;;;;;;;5045078;28;20253;-74
2023/05/06 07:36:39;;;;;;;4.83;2.00;;;;;;;;;;5057783;28;20281;-74
2023/05/06 07:39:08;;;;;;;2.07;1.97;;;;;;;;;;5046236;28;20173;-74
2023/05/06 07:41:33;;;;;;;2.50;2.13;;;;;;;;;;5044782;28;20259;-74
2023/05/06 07:43:58;;;;;;;12.80;11.53;;;;;;;;;;5042991;28;20273;-74
2023/05/06 07:46:23;;;;;;;2.30;2.10;;;;;;;;;;5043628;28;20167;-74
2023/05/06 07:48:48;;;;;;;23.70;21.20;;;;;;;;;;5045100;28;20218;-74
2023/05/06 07:51:14;;;;;;;8.83;2.87;;;;;;;;;;5048385;28;20170;-74
2023/05/06 07:53:40;;;;;;;2.07;1.97;;;;;;;;;;5040409;28;20190;-74
2023/05/06 07:56:05;;;;;;;1.80;1.60;;;;;;;;;;5048525;28;20178;-74
2023/05/06 07:58:30;;;;;;;3.10;2.00;;;;;;;;;;5043312;28;20202;-74
2023/05/06 08:00:56;;;;;;;1.50;1.40;;;;;;;;;;5040466;28;20282;-74
2023/05/06 08:03:21;;;;;;;1.93;1.50;;;;;;;;;;5046751;28;20283;-74
2023/05/06 08:05:48;;;;;;;1.67;1.53;;;;;;;;;;5049526;28;20178;-74
2023/05/06 08:08:13;;;;;;;8.03;1.90;;;;;;;;;;5044858;28;20183;-74
2023/05/06 08:10:38;;;;;;;3.57;2.53;;;;;;;;;;5040445;28;20183;-74
2023/05/06 08:13:03;;;;;;;1.67;1.40;;;;;;;;;;5063323;28;20188;-74
2023/05/06 08:15:29;;;;;;;1.67;1.57;;;;;;;;;;5042532;28;20178;-74
2023/05/06 08:17:54;;;;;;;2.93;1.90;;;;;;;;;;5048021;28;20294;-74
2023/05/06 08:20:20;;;;;;;1.53;1.43;;;;;;;;;;5048327;28;20192;-74
2023/05/06 08:22:45;;;;;;;1.87;1.50;;;;;;;;;;5042267;28;20175;-74
2023/05/06 08:25:10;;;;;;;2.97;1.73;;;;;;;;;;5049797;28;20245;-74
2023/05/06 08:27:35;;;;;;;1.40;1.30;;;;;;;;;;5046441;28;20174;-74
2023/05/06 08:30:00;;;;;;;1.60;1.40;;;;;;;;;;5048773;28;20234;-74
2023/05/06 08:32:26;;;;;;;2.57;1.60;;;;;;;;;;5047407;28;20186;-74
2023/05/06 08:34:51;;;;;;;2.07;1.30;;;;;;;;;;5050525;28;20190;-74
2023/05/06 08:37:16;;;;;;;1.70;1.60;;;;;;;;;;5044737;28;20190;-74
2023/05/06 08:39:41;;;;;;;1.40;1.30;;;;;;;;;;5048564;28;20175;-74
2023/05/06 08:42:08;;;;;;;1.80;1.40;;;;;;;;;;5049757;28;20178;-74
2023/05/06 08:44:34;;;;;;;3.60;1.50;;;;;;;;;;5048303;28;20205;-74
2023/05/06 08:46:59;;;;;;;1.10;1.10;;;;;;;;;;5062847;28;20184;-74
2023/05/06 08:49:24;;;;;;;1.50;1.40;;;;;;;;;;5043664;28;20264;-74
2023/05/06 08:51:51;;;;;;;1.67;1.30;;;;;;;;;;5062126;28;20190;-74
2023/05/06 08:54:16;;;;;;;1.47;1.37;;;;;;;;;;5050590;28;20203;-74
2023/05/06 08:56:44;;;;;;;1.60;1.10;;;;;;;;;;5049884;28;20196;-74
2023/05/06 08:59:10;;;;;;;2.33;1.33;;;;;;;;;;5045873;28;20180;-74
2023/05/06 09:01:35;;;;;;;3.33;1.43;;;;;;;;;;5054136;28;20344;-74
2023/05/06 09:04:02;;;;;;;2.27;1.40;;;;;;;;;;5047421;28;20202;-74
2023/05/06 09:06:28;;;;;;;5.13;1.70;;;;;;;;;;5051161;28;20178;-74
2023/05/06 09:08:53;;;;;;;2.70;1.60;;;;;;;;;;5042538;28;20172;-75
2023/05/06 09:11:25;;;;;;;1.50;1.40;;;;;;;;;;5045710;28;20219;-75
2023/05/06 09:14:05;;;;;;;1.57;1.30;;;;;;;;;;5040920;28;20216;-75
2023/05/06 09:16:31;;;;;;;1.93;1.43;;;;;;;;;;5049272;28;20214;-75
2023/05/06 09:18:57;;;;;;;1.37;1.23;;;;;;;;;;5045817;28;20192;-75
2023/05/06 09:21:28;;;;;;;1.37;1.27;;;;;;;;;;5047989;28;20264;-75
2023/05/06 09:23:53;;;;;;;1.20;1.10;;;;;;;;;;5041470;28;20191;-75
2023/05/06 09:26:21;;;;;;;1.33;1.23;;;;;;;;;;5047178;28;20264;-75
2023/05/06 09:28:47;;;;;;;1.40;1.30;;;;;;;;;;5051028;28;20195;-75
2023/05/06 09:31:15;;;;;;;1.10;1.10;;;;;;;;;;5049951;28;20237;-75
2023/05/06 09:33:40;;;;;;;3.37;1.40;;;;;;;;;;5047641;28;20229;-75
2023/05/06 09:36:06;;;;;;;2.07;1.30;;;;;;;;;;5044091;28;20177;-75
2023/05/06 09:38:31;;;;;;;1.63;1.37;;;;;;;;;;5047188;28;20217;-75
2023/05/06 09:40:56;;;;;;;1.50;1.33;;;;;;;;;;5045091;28;20179;-75
2023/05/06 09:43:22;;;;;;;1.93;1.50;;;;;;;;;;5048054;28;20236;-75
2023/05/06 09:45:47;;;;;;;1.23;1.10;;;;;;;;;;5045904;28;20213;-75
2023/05/06 09:48:13;;;;;;;7.00;1.70;;;;;;;;;;5047239;28;20178;-75
2023/05/06 09:50:38;;;;;;;1.30;1.00;;;;;;;;;;5042524;28;20200;-75
2023/05/06 09:53:04;;;;;;;2.20;1.20;;;;;;;;;;5045070;28;20175;-75
2023/05/06 09:55:29;;;;;;;1.80;1.20;;;;;;;;;;5044691;28;20208;-75
2023/05/06 09:57:55;;;;;;;1.30;1.20;;;;;;;;;;5046140;28;20208;-75
2023/05/06 10:00:26;;;;;;;1.80;1.27;;;;;;;;;;5044070;28;20273;-75
2023/05/06 10:02:53;;;;;;;1.57;1.37;;;;;;;;;;5047612;28;20316;-75
2023/05/06 10:05:19;;;;;;;1.97;1.30;;;;;;;;;;5050811;28;20174;-75
2023/05/06 10:07:46;;;;;;;2.07;1.43;;;;;;;;;;5042963;28;20193;-75
2023/05/06 10:10:12;;;;;;;1.33;1.23;;;;;;;;;;5054051;28;20217;-75
2023/05/06 10:12:37;;;;;;;2.07;1.70;;;;;;;;;;5048427;28;20186;-75
2023/05/06 10:15:03;;;;;;;1.87;1.27;;;;;;;;;;5036397;28;20176;-75
2023/05/06 10:17:30;;;;;;;2.37;1.33;;;;;;;;;;5042425;28;20203;-75
2023/05/06 10:19:57;;;;;;;1.50;1.40;;;;;;;;;;5040734;28;20202;-75
2023/05/06 10:22:31;;;;;;;2.97;1.20;;;;;;;;;;5046705;28;20185;-75
2023/05/06 10:25:09;;;;;;;1.10;1.10;;;;;;;;;;5053185;28;20181;-75
2023/05/06 10:27:38;;;;;;;1.87;1.10;;;;;;;;;;5043795;28;20263;-75
2023/05/06 10:30:04;;;;;;;1.13;1.13;;;;;;;;;;5045878;28;20230;-76
2023/05/06 10:32:30;;;;;;;1.10;1.10;;;;;;;;;;5046508;28;20237;-76
2023/05/06 10:34:56;;;;;;;1.20;1.20;;;;;;;;;;5047559;28;20179;-76
2023/05/06 10:37:24;;;;;;;1.30;1.20;;;;;;;;;;5047679;28;20198;-75
2023/05/06 10:39:50;;;;;;;1.27;1.20;;;;;;;;;;5049466;28;20176;-75
2023/05/06 10:42:15;;;;;;;1.40;1.30;;;;;;;;;;5052257;28;20184;-76
2023/05/06 10:44:57;;;;;;;1.53;1.30;;;;;;;;;;5042470;28;20182;-76
2023/05/06 10:47:22;;;;;;;4.33;1.50;;;;;;;;;;5049980;28;20204;-75
2023/05/06 10:50:06;;;;;;;1.23;1.13;;;;;;;;;;5041706;28;20183;-76
2023/05/06 10:52:44;;;;;;;1.60;1.50;;;;;;;;;;5042779;28;20175;-75
2023/05/06 10:55:25;;;;;;;2.43;1.37;;;;;;;;;;5035482;28;20257;-75
2023/05/06 10:57:52;;;;;;;1.57;1.37;;;;;;;;;;5039771;28;20205;-76
2023/05/06 11:00:18;;;;;;;1.60;1.17;;;;;;;;;;5035855;28;20175;-76
2023/05/06 11:02:43;;;;;;;1.47;1.17;;;;;;;;;;5035740;28;20205;-76
2023/05/06 11:05:09;;;;;;;1.43;1.17;;;;;;;;;;5043953;28;20180;-76
2023/05/06 11:07:35;;;;;;;1.43;1.33;;;;;;;;;;5045501;28;20216;-76
2023/05/06 11:10:02;;;;;;;3.57;1.93;;;;;;;;;;5039401;28;20280;-76
2023/05/06 11:12:47;;;;;;;1.90;1.50;;;;;;;;;;5039286;28;20177;-76
2023/05/06 11:15:27;;;;;;;1.73;1.30;;;;;;;;;;5044809;28;20188;-76
2023/05/06 11:17:54;;;;;;;2.53;1.50;;;;;;;;;;5037957;28;20199;-76
2023/05/06 11:20:19;;;;;;;1.63;1.37;;;;;;;;;;5037960;28;20179;-76
2023/05/06 11:22:45;;;;;;;1.27;1.17;;;;;;;;;;5043417;28;20184;-76
2023/05/06 11:25:10;;;;;;;1.80;1.17;;;;;;;;;;5045516;28;20175;-76
2023/05/06 11:27:36;;;;;;;1.23;1.10;;;;;;;;;;5047341;28;20183;-76
2023/05/06 11:30:02;;;;;;;1.40;1.13;;;;;;;;;;5045749;28;20226;-76
2023/05/06 11:32:28;;;;;;;3.80;1.10;;;;;;;;;;5040851;28;20259;-76
2023/05/06 11:34:54;;;;;;;1.63;1.20;;;;;;;;;;5045033;28;20331;-76
2023/05/06 11:37:26;;;;;;;1.37;1.10;;;;;;;;;;5044127;28;20251;-76
2023/05/06 11:39:51;;;;;;;1.27;1.17;;;;;;;;;;5040464;28;20179;-76
2023/05/06 11:42:23;;;;;;;1.50;1.40;;;;;;;;;;5042443;28;20182;-76
2023/05/06 11:44:48;;;;;;;1.50;1.40;;;;;;;;;;5057701;28;20270;-76
2023/05/06 11:47:13;;;;;;;1.40;1.30;;;;;;;;;;5044638;28;20172;-76
2023/05/06 11:49:42;;;;;;;1.37;1.27;;;;;;;;;;5040249;28;20267;-76
2023/05/06 11:52:11;;;;;;;2.23;1.37;;;;;;;;;;5046294;28;20267;-76
2023/05/06 11:54:40;;;;;;;1.57;1.10;;;;;;;;;;5044333;28;20400;-76
2023/05/06 11:57:08;;;;;;;1.80;1.50;;;;;;;;;;5056204;28;20225;-76
2023/05/06 11:59:38;;;;;;;1.47;1.37;;;;;;;;;;5044144;28;20233;-76
2023/05/06 12:02:08;;;;;;;2.30;1.30;;;;;;;;;;5042084;28;20256;-76
2023/05/06 12:04:40;;;;;;;1.43;1.30;;;;;;;;;;5049140;28;20246;-76
2023/05/06 12:07:06;;;;;;;1.13;1.07;;;;;;;;;;5052697;28;20190;-76
2023/05/06 12:09:33;;;;;;;1.20;1.10;;;;;;;;;;5048274;28;20182;-76
2023/05/06 12:11:58;;;;;;;1.43;1.30;;;;;;;;;;5044412;28;20416;-76
2023/05/06 12:14:23;;;;;;;1.93;1.03;;;;;;;;;;5042735;28;20182;-76
2023/05/06 12:16:49;;;;;;;1.77;1.20;;;;;;;;;;5043388;28;20239;-76
2023/05/06 12:19:14;;;;;;;2.00;1.77;;;;;;;;;;5050454;28;20207;-76
2023/05/06 12:21:40;;;;;;;4.20;2.00;;;;;;;;;;5050854;28;20281;-76
2023/05/06 12:24:05;;;;;;;1.37;1.27;;;;;;;;;;5063246;28;20197;-76
2023/05/06 12:26:44;;;;;;;2.30;1.40;;;;;;;;;;5051756;28;20184;-76
2023/05/06 12:29:10;;;;;;;2.20;1.13;;;;;;;;;;5041192;28;20173;-76
2023/05/06 12:31:36;;;;;;;1.50;1.27;;;;;;;;;;5050054;28;20252;-76
2023/05/06 12:34:02;;;;;;;1.53;1.40;;;;;;;;;;5051789;28;20213;-76
2023/05/06 12:36:27;;;;;;;2.37;1.73;;;;;;;;;;5045088;28;20218;-76
2023/05/06 12:38:58;;;;;;;1.97;1.87;;;;;;;;;;5050261;28;20302;-76
2023/05/06 12:41:24;;;;;;;1.53;1.43;;;;;;;;;;5041626;28;20174;-76
2023/05/06 12:43:51;;;;;;;1.33;1.23;;;;;;;;;;5047351;28;20188;-76
2023/05/06 12:46:17;;;;;;;1.87;1.50;;;;;;;;;;5042401;28;20182;-76
2023/05/06 12:48:55;;;;;;;3.87;1.63;;;;;;;;;;5049937;28;20181;-76
2023/05/06 12:51:21;;;;;;;1.60;1.50;;;;;;;;;;5046734;28;20191;-76
2023/05/06 12:53:46;;;;;;;1.80;1.50;;;;;;;;;;5045563;28;20245;-76
2023/05/06 12:56:11;;;;;;;2.43;1.50;;;;;;;;;;5040264;28;20185;-76
2023/05/06 12:58:38;;;;;;;2.00;1.60;;;;;;;;;;5047090;28;20229;-76
2023/05/06 13:01:03;;;;;;;1.50;1.40;;;;;;;;;;5047872;28;20252;-76
2023/05/06 13:03:28;;;;;;;1.60;1.50;;;;;;;;;;5049289;28;20243;-76
2023/05/06 13:05:54;;;;;;;1.70;1.47;;;;;;;;;;5048602;28;20226;-76
2023/05/06 13:08:19;;;;;;;1.60;1.50;;;;;;;;;;5050227;28;20186;-76
2023/05/06 13:10:44;;;;;;;2.80;1.70;;;;;;;;;;5044904;28;20177;-76
2023/05/06 13:13:09;;;;;;;1.98;1.52;;;;;;;;;;5049561;28;20224;-76
2023/05/06 13:15:35;;;;;;;1.63;1.53;;;;;;;;;;5049484;28;20185;-76
2023/05/06 13:18:00;;;;;;;1.70;1.60;;;;;;;;;;5048781;28;20236;-76
2023/05/06 13:20:26;;;;;;;1.70;1.60;;;;;;;;;;5058472;28;20179;-76
2023/05/06 13:22:51;;;;;;;5.90;1.80;;;;;;;;;;5044558;28;20178;-76
2023/05/06 13:25:16;;;;;;;5.30;1.80;;;;;;;;;;5039959;28;20197;-76
2023/05/06 13:27:41;;;;;;;1.40;1.30;;;;;;;;;;5047118;28;20190;-76
2023/05/06 13:30:07;;;;;;;1.60;1.50;;;;;;;;;;5046114;28;20223;-76
2023/05/06 13:32:32;;;;;;;1.80;1.60;;;;;;;;;;5049786;28;20190;-76
2023/05/06 13:34:58;;;;;;;1.97;1.80;;;;;;;;;;5042484;28;20166;-76
2023/05/06 13:37:23;;;;;;;1.70;1.60;;;;;;;;;;5039549;28;20223;-76
2023/05/06 13:39:48;;;;;;;1.67;1.57;;;;;;;;;;5051818;28;20181;-76
2023/05/06 13:42:15;;;;;;;1.70;1.37;;;;;;;;;;5043585;28;20227;-76
2023/05/06 13:44:40;;;;;;;2.80;1.70;;;;;;;;;;5044659;28;20198;-76
2023/05/06 13:47:06;;;;;;;2.43;2.10;;;;;;;;;;5036759;28;20178;-76
2023/05/06 13:49:31;;;;;;;2.10;1.80;;;;;;;;;;5049619;28;20208;-76
2023/05/06 13:51:57;;;;;;;2.13;1.80;;;;;;;;;;5038520;28;20189;-76
2023/05/06 13:54:22;;;;;;;1.73;1.60;;;;;;;;;;5037592;28;20222;-76
2023/05/06 13:56:47;;;;;;;2.10;1.80;;;;;;;;;;5062994;28;20182;-76
2023/05/06 13:59:12;;;;;;;1.60;1.50;;;;;;;;;;5042450;28;20275;-76
2023/05/06 14:01:38;;;;;;;2.10;2.00;;;;;;;;;;5050421;28;20185;-76
2023/05/06 14:04:03;;;;;;;2.20;1.70;;;;;;;;;;5039515;28;20208;-76
2023/05/06 14:06:28;;;;;;;1.50;1.40;;;;;;;;;;5045150;28;20173;-76
2023/05/06 14:08:54;;;;;;;6.33;2.50;;;;;;;;;;5048691;28;20176;-76
2023/05/06 14:11:19;;;;;;;1.63;1.53;;;;;;;;;;5045652;28;20181;-76
2023/05/06 14:13:44;;;;;;;2.60;1.73;;;;;;;;;;5048667;28;20214;-76
2023/05/06 14:16:10;;;;;;;2.10;1.90;;;;;;;;;;5040902;28;20208;-76
2023/05/06 14:18:35;;;;;;;1.63;1.53;;;;;;;;;;5046479;28;20239;-76
2023/05/06 14:21:00;;;;;;;1.70;1.53;;;;;;;;;;5044854;28;20191;-81
2023/05/06 14:23:25;;;;;;;2.17;1.80;;;;;;;;;;5042554;28;20256;-77
2023/05/06 14:25:51;;;;;;;1.90;1.70;;;;;;;;;;5042542;28;20185;-75
2023/05/06 14:28:16;;;;;;;4.03;1.70;;;;;;;;;;5042084;28;20221;-75
2023/05/06 14:30:41;;;;;;;1.97;1.77;;;;;;;;;;5044573;28;20226;-75
2023/05/06 14:33:10;;;;;;;3.73;2.00;;;;;;;;;;5046992;28;20192;-75
2023/05/06 14:35:38;;;;;;;3.20;1.90;;;;;;;;;;5058911;28;20193;-75